sensor_id;sensor_type;location;lat;lon;timestamp;pressure;altitude;pressure_sealevel;temperature;humidity
30081;BME280;16902;50.816;12.828;2023-07-02T00:03:57;96856.97;;;15.54;100.00
30081;BME280;16902;50.816;12.828;2023-07-02T00:08:59;96863.38;;;15.58;100.00
30081;BME280;16902;50.816;12.828;2023-07-02T00:14:01;96869.97;;;15.61;100.00
30081;BME280;16902;50.816;12.828;2023-07-02T00:19:02;96860.03;;;15.63;100.00
30081;BME280;16902;50.816;12.828;2023-07-02T00:24:04;96873.84;;;15.70;100.00
30081;BME280;16902;50.816;12.828;2023-07-02T00:29:06;96867.09;;;15.74;100.00
30081;BME280;16902;50.816;12.828;2023-07-02T00:34:09;96868.38;;;15.72;100.00
30081;BME280;16902;50.816;12.828;2023-07-02T00:39:11;96872.59;;;15.61;100.00
30081;BME280;16902;50.816;12.828;2023-07-02T00:44:17;96869.56;;;15.52;100.00
30081;BME280;16902;50.816;12.828;2023-07-02T00:49:19;96870.09;;;15.54;100.00
30081;BME280;16902;50.816;12.828;2023-07-02T00:54:21;96877.41;;;15.52;100.00
30081;BME280;16902;50.816;12.828;2023-07-02T00:59:23;96869.56;;;15.52;100.00
30081;BME280;16902;50.816;12.828;2023-07-02T01:04:25;96866.00;;;15.47;100.00
30081;BME280;16902;50.816;12.828;2023-07-02T01:09:31;96867.03;;;15.46;100.00
30081;BME280;16902;50.816;12.828;2023-07-02T01:14:41;96863.53;;;15.40;100.00
30081;BME280;16902;50.816;12.828;2023-07-02T01:19:50;96860.09;;;15.39;100.00
30081;BME280;16902;50.816;12.828;2023-07-02T01:24:55;96858.97;;;15.35;100.00
30081;BME280;16902;50.816;12.828;2023-07-02T01:29:57;96855.22;;;15.31;100.00
30081;BME280;16902;50.816;12.828;2023-07-02T01:34:59;96852.59;;;15.31;100.00
30081;BME280;16902;50.816;12.828;2023-07-02T01:40:05;96856.34;;;15.35;100.00
30081;BME280;16902;50.816;12.828;2023-07-02T01:45:08;96857.16;;;15.36;100.00
30081;BME280;16902;50.816;12.828;2023-07-02T01:50:12;96848.13;;;15.32;100.00
30081;BME280;16902;50.816;12.828;2023-07-02T01:55:15;96844.38;;;15.28;100.00
30081;BME280;16902;50.816;12.828;2023-07-02T02:00:19;96839.03;;;15.23;100.00
30081;BME280;16902;50.816;12.828;2023-07-02T02:05:20;96850.22;;;15.18;100.00
30081;BME280;16902;50.816;12.828;2023-07-02T02:10:24;96855.69;;;15.16;100.00
30081;BME280;16902;50.816;12.828;2023-07-02T02:15:26;96862.44;;;15.12;100.00
30081;BME280;16902;50.816;12.828;2023-07-02T02:20:28;96856.28;;;15.07;100.00
30081;BME280;16902;50.816;12.828;2023-07-02T02:25:30;96851.28;;;15.05;100.00
30081;BME280;16902;50.816;12.828;2023-07-02T02:30:31;96855.69;;;15.16;100.00
30081;BME280;16902;50.816;12.828;2023-07-02T02:35:33;96847.03;;;15.16;100.00
30081;BME280;16902;50.816;12.828;2023-07-02T02:40:35;96856.03;;;15.20;100.00
30081;BME280;16902;50.816;12.828;2023-07-02T02:45:40;96860.16;;;15.16;100.00
30081;BME280;16902;50.816;12.828;2023-07-02T02:50:42;96856.03;;;15.20;100.00
30081;BME280;16902;50.816;12.828;2023-07-02T02:55:45;96844.06;;;15.24;100.00
30081;BME280;16902;50.816;12.828;2023-07-02T03:00:46;96848.53;;;15.24;100.00
30081;BME280;16902;50.816;12.828;2023-07-02T03:05:51;96856.50;;;15.29;100.00
30081;BME280;16902;50.816;12.828;2023-07-02T03:10:53;96862.72;;;15.39;100.00
30081;BME280;16902;50.816;12.828;2023-07-02T03:15:55;96867.38;;;15.49;100.00
30081;BME280;16902;50.816;12.828;2023-07-02T03:20:56;96868.41;;;15.48;100.00
30081;BME280;16902;50.816;12.828;2023-07-02T03:25:58;96869.22;;;15.49;100.00
30081;BME280;16902;50.816;12.828;2023-07-02T03:31:00;96869.91;;;15.44;100.00
30081;BME280;16902;50.816;12.828;2023-07-02T03:36:07;96875.50;;;15.36;100.00
30081;BME280;16902;50.816;12.828;2023-07-02T03:41:09;96882.69;;;15.40;100.00
30081;BME280;16902;50.816;12.828;2023-07-02T03:46:14;96901.38;;;15.32;100.00
30081;BME280;16902;50.816;12.828;2023-07-02T03:51:16;96899.63;;;14.86;100.00
30081;BME280;16902;50.816;12.828;2023-07-02T03:56:18;96912.38;;;14.71;100.00
30081;BME280;16902;50.816;12.828;2023-07-02T04:01:19;96921.66;;;14.55;100.00
30081;BME280;16902;50.816;12.828;2023-07-02T04:06:21;96925.94;;;14.37;100.00
30081;BME280;16902;50.816;12.828;2023-07-02T04:11:23;96924.91;;;14.27;100.00
30081;BME280;16902;50.816;12.828;2023-07-02T04:16:24;96937.38;;;14.25;100.00
30081;BME280;16902;50.816;12.828;2023-07-02T04:21:26;96939.44;;;14.23;100.00
30081;BME280;16902;50.816;12.828;2023-07-02T04:26:28;96952.78;;;14.33;100.00
30081;BME280;16902;50.816;12.828;2023-07-02T04:31:53;96956.56;;;14.37;100.00
30081;BME280;16902;50.816;12.828;2023-07-02T04:36:55;96957.38;;;14.37;100.00
30081;BME280;16902;50.816;12.828;2023-07-02T04:41:57;96960.91;;;14.43;100.00
30081;BME280;16902;50.816;12.828;2023-07-02T04:47:02;96965.06;;;14.51;100.00
30081;BME280;16902;50.816;12.828;2023-07-02T04:52:04;96979.75;;;14.52;100.00
30081;BME280;16902;50.816;12.828;2023-07-02T04:57:06;96988.41;;;14.52;100.00
30081;BME280;16902;50.816;12.828;2023-07-02T05:02:08;96990.00;;;14.53;100.00
30081;BME280;16902;50.816;12.828;2023-07-02T05:07:09;96999.44;;;14.54;100.00
30081;BME280;16902;50.816;12.828;2023-07-02T05:12:11;97002.06;;;14.54;100.00
30081;BME280;16902;50.816;12.828;2023-07-02T05:17:18;96996.41;;;14.57;100.00
30081;BME280;16902;50.816;12.828;2023-07-02T05:22:20;96997.97;;;14.58;100.00
30081;BME280;16902;50.816;12.828;2023-07-02T05:27:22;97006.88;;;14.57;100.00
30081;BME280;16902;50.816;12.828;2023-07-02T05:32:24;97007.00;;;14.44;100.00
30081;BME280;16902;50.816;12.828;2023-07-02T05:37:27;97008.03;;;14.43;100.00
30081;BME280;16902;50.816;12.828;2023-07-02T05:42:29;97011.09;;;14.40;100.00
30081;BME280;16902;50.816;12.828;2023-07-02T05:47:31;97004.13;;;14.52;100.00
30081;BME280;16902;50.816;12.828;2023-07-02T05:52:33;97000.84;;;14.69;100.00
30081;BME280;16902;50.816;12.828;2023-07-02T05:57:34;97009.91;;;14.84;100.00
30081;BME280;16902;50.816;12.828;2023-07-02T06:02:36;97017.78;;;14.96;100.00
30081;BME280;16902;50.816;12.828;2023-07-02T06:07:38;97028.31;;;15.20;100.00
30081;BME280;16902;50.816;12.828;2023-07-02T06:12:40;97028.41;;;15.36;100.00
30081;BME280;16902;50.816;12.828;2023-07-02T06:17:44;97025.34;;;15.75;100.00
30081;BME280;16902;50.816;12.828;2023-07-02T06:22:46;97033.44;;;15.85;100.00
30081;BME280;16902;50.816;12.828;2023-07-02T06:27:48;97038.19;;;16.11;100.00
30081;BME280;16902;50.816;12.828;2023-07-02T06:32:50;97033.69;;;16.24;100.00
30081;BME280;16902;50.816;12.828;2023-07-02T06:37:51;97037.94;;;16.82;100.00
30081;BME280;16902;50.816;12.828;2023-07-02T06:42:53;97045.94;;;17.20;100.00
30081;BME280;16902;50.816;12.828;2023-07-02T06:47:55;97046.56;;;17.11;100.00
30081;BME280;16902;50.816;12.828;2023-07-02T06:52:57;97053.66;;;16.93;100.00
30081;BME280;16902;50.816;12.828;2023-07-02T06:57:59;97054.00;;;16.68;100.00
30081;BME280;16902;50.816;12.828;2023-07-02T07:03:02;97047.22;;;16.73;100.00
30081;BME280;16902;50.816;12.828;2023-07-02T07:08:04;97045.84;;;17.15;100.00
30081;BME280;16902;50.816;12.828;2023-07-02T07:13:06;97048.47;;;17.66;100.00
30081;BME280;16902;50.816;12.828;2023-07-02T07:18:12;97057.00;;;17.56;100.00
30081;BME280;16902;50.816;12.828;2023-07-02T07:23:15;97051.31;;;17.64;100.00
30081;BME280;16902;50.816;12.828;2023-07-02T07:28:18;97046.91;;;17.87;100.00
30081;BME280;16902;50.816;12.828;2023-07-02T07:33:20;97046.94;;;18.09;100.00
30081;BME280;16902;50.816;12.828;2023-07-02T07:38:21;97035.28;;;18.27;100.00
30081;BME280;16902;50.816;12.828;2023-07-02T07:43:23;97038.06;;;18.15;100.00
30081;BME280;16902;50.816;12.828;2023-07-02T07:48:26;97035.53;;;18.03;100.00
30081;BME280;16902;50.816;12.828;2023-07-02T07:53:27;97041.13;;;18.29;100.00
30081;BME280;16902;50.816;12.828;2023-07-02T07:58:29;97040.81;;;18.47;100.00
30081;BME280;16902;50.816;12.828;2023-07-02T08:03:33;97035.28;;;18.48;100.00
30081;BME280;16902;50.816;12.828;2023-07-02T08:08:35;97038.03;;;17.93;100.00
30081;BME280;16902;50.816;12.828;2023-07-02T08:13:38;97039.50;;;17.84;100.00
30081;BME280;16902;50.816;12.828;2023-07-02T08:18:40;97059.81;;;18.05;100.00
30081;BME280;16902;50.816;12.828;2023-07-02T08:23:42;97057.53;;;18.36;100.00
30081;BME280;16902;50.816;12.828;2023-07-02T08:28:45;97050.94;;;18.60;100.00
30081;BME280;16902;50.816;12.828;2023-07-02T08:33:47;97059.06;;;18.81;100.00
30081;BME280;16902;50.816;12.828;2023-07-02T08:38:48;97058.22;;;19.02;100.00
30081;BME280;16902;50.816;12.828;2023-07-02T08:43:54;97059.63;;;19.47;100.00
30081;BME280;16902;50.816;12.828;2023-07-02T08:48:56;97062.09;;;19.59;100.00
30081;BME280;16902;50.816;12.828;2023-07-02T08:53:57;97063.94;;;20.00;100.00
30081;BME280;16902;50.816;12.828;2023-07-02T08:58:59;97062.25;;;20.37;100.00
30081;BME280;16902;50.816;12.828;2023-07-02T09:04:01;97071.66;;;20.85;100.00
30081;BME280;16902;50.816;12.828;2023-07-02T09:09:03;97079.06;;;20.88;100.00
30081;BME280;16902;50.816;12.828;2023-07-02T09:14:05;97075.59;;;20.72;100.00
30081;BME280;16902;50.816;12.828;2023-07-02T09:19:08;97076.50;;;21.34;100.00
30081;BME280;16902;50.816;12.828;2023-07-02T09:24:21;97085.75;;;21.52;100.00
30081;BME280;16902;50.816;12.828;2023-07-02T09:29:29;97088.63;;;21.20;100.00
30081;BME280;16902;50.816;12.828;2023-07-02T09:34:32;97086.78;;;21.81;100.00
30081;BME280;16902;50.816;12.828;2023-07-02T09:39:35;97091.00;;;21.11;100.00
30081;BME280;16902;50.816;12.828;2023-07-02T09:44:38;97080.81;;;20.47;100.00
30081;BME280;16902;50.816;12.828;2023-07-02T09:49:49;97093.06;;;20.73;100.00
30081;BME280;16902;50.816;12.828;2023-07-02T09:54:56;97083.34;;;21.10;100.00
30081;BME280;16902;50.816;12.828;2023-07-02T10:00:03;97095.16;;;22.29;100.00
30081;BME280;16902;50.816;12.828;2023-07-02T10:05:06;97092.88;;;21.46;100.00
30081;BME280;16902;50.816;12.828;2023-07-02T10:10:08;97086.69;;;20.69;100.00
30081;BME280;16902;50.816;12.828;2023-07-02T10:15:10;97086.53;;;20.28;100.00
30081;BME280;16902;50.816;12.828;2023-07-02T10:20:12;97096.09;;;20.40;100.00
30081;BME280;16902;50.816;12.828;2023-07-02T10:25:37;97091.84;;;21.63;100.00
30081;BME280;16902;50.816;12.828;2023-07-02T10:30:40;97097.88;;;21.94;100.00
30081;BME280;16902;50.816;12.828;2023-07-02T10:35:46;97091.56;;;21.08;100.00
30081;BME280;16902;50.816;12.828;2023-07-02T10:40:58;97105.47;;;20.68;100.00
30081;BME280;16902;50.816;12.828;2023-07-02T10:46:01;97103.19;;;21.12;100.00
30081;BME280;16902;50.816;12.828;2023-07-02T10:51:11;97124.16;;;21.65;100.00
30081;BME280;16902;50.816;12.828;2023-07-02T10:56:17;97106.59;;;22.79;100.00
30081;BME280;16902;50.816;12.828;2023-07-02T11:01:30;97118.59;;;22.67;100.00
30081;BME280;16902;50.816;12.828;2023-07-02T11:06:33;97115.31;;;22.90;100.00
30081;BME280;16902;50.816;12.828;2023-07-02T11:11:34;97121.69;;;22.09;100.00
30081;BME280;16902;50.816;12.828;2023-07-02T11:16:37;97124.69;;;21.57;100.00
30081;BME280;16902;50.816;12.828;2023-07-02T11:21:53;97128.91;;;21.68;100.00
30081;BME280;16902;50.816;12.828;2023-07-02T11:26:58;97118.81;;;21.14;100.00
30081;BME280;16902;50.816;12.828;2023-07-02T11:32:07;97124.59;;;21.00;100.00
30081;BME280;16902;50.816;12.828;2023-07-02T11:37:11;97144.00;;;21.77;100.00
30081;BME280;16902;50.816;12.828;2023-07-02T11:42:12;97140.28;;;22.19;100.00
30081;BME280;16902;50.816;12.828;2023-07-02T11:47:14;97128.25;;;23.02;100.00
30081;BME280;16902;50.816;12.828;2023-07-02T11:52:17;97130.16;;;22.86;100.00
30081;BME280;16902;50.816;12.828;2023-07-02T11:57:22;97135.81;;;26.51;85.58
30081;BME280;16902;50.816;12.828;2023-07-02T12:02:24;97129.44;;;25.92;73.99
30081;BME280;16902;50.816;12.828;2023-07-02T12:07:26;97136.63;;;24.65;87.17
30081;BME280;16902;50.816;12.828;2023-07-02T12:12:27;97129.38;;;25.46;98.82
30081;BME280;16902;50.816;12.828;2023-07-02T12:17:29;97130.91;;;27.08;76.09
30081;BME280;16902;50.816;12.828;2023-07-02T12:22:31;97138.31;;;28.41;54.81
30081;BME280;16902;50.816;12.828;2023-07-02T12:27:32;97125.91;;;27.60;47.64
30081;BME280;16902;50.816;12.828;2023-07-02T12:32:34;97136.09;;;28.03;47.76
30081;BME280;16902;50.816;12.828;2023-07-02T12:37:43;97139.97;;;28.59;46.74
30081;BME280;16902;50.816;12.828;2023-07-02T12:42:46;97128.09;;;24.86;66.56
30081;BME280;16902;50.816;12.828;2023-07-02T12:47:48;97141.50;;;24.09;86.83
30081;BME280;16902;50.816;12.828;2023-07-02T12:52:50;97145.03;;;24.00;94.60
30081;BME280;16902;50.816;12.828;2023-07-02T12:57:52;97155.97;;;26.85;53.79
30081;BME280;16902;50.816;12.828;2023-07-02T13:02:54;97146.97;;;28.38;46.74
30081;BME280;16902;50.816;12.828;2023-07-02T13:08:06;97157.84;;;31.42;39.67
30081;BME280;16902;50.816;12.828;2023-07-02T13:13:08;97164.91;;;33.79;35.33
30081;BME280;16902;50.816;12.828;2023-07-02T13:18:23;97176.50;;;34.23;33.98
30081;BME280;16902;50.816;12.828;2023-07-02T13:23:25;97148.44;;;31.81;41.02
30081;BME280;16902;50.816;12.828;2023-07-02T13:28:27;97160.75;;;32.15;38.74
30081;BME280;16902;50.816;12.828;2023-07-02T13:33:29;97153.75;;;30.35;39.01
30081;BME280;16902;50.816;12.828;2023-07-02T13:38:34;97148.97;;;28.81;45.89
30081;BME280;16902;50.816;12.828;2023-07-02T13:43:35;97152.41;;;27.93;45.14
30081;BME280;16902;50.816;12.828;2023-07-02T13:48:38;97164.69;;;25.37;58.90
30081;BME280;16902;50.816;12.828;2023-07-02T13:53:40;97155.06;;;24.80;65.22
30081;BME280;16902;50.816;12.828;2023-07-02T14:03:58;97166.41;;;27.45;52.38
30081;BME280;16902;50.816;12.828;2023-07-02T14:09:00;97178.00;;;32.84;38.34
30081;BME280;16902;50.816;12.828;2023-07-02T14:14:02;97170.00;;;33.12;32.55
30081;BME280;16902;50.816;12.828;2023-07-02T14:19:04;97177.75;;;29.50;36.91
30081;BME280;16902;50.816;12.828;2023-07-02T14:24:06;97178.69;;;29.80;37.19
30081;BME280;16902;50.816;12.828;2023-07-02T14:29:08;97171.78;;;25.80;47.46
30081;BME280;16902;50.816;12.828;2023-07-02T14:34:10;97181.38;;;29.28;44.53
30081;BME280;16902;50.816;12.828;2023-07-02T14:39:12;97191.66;;;34.28;33.46
30081;BME280;16902;50.816;12.828;2023-07-02T14:44:14;97184.91;;;30.27;38.46
30081;BME280;16902;50.816;12.828;2023-07-02T14:49:18;97188.84;;;28.03;40.89
30081;BME280;16902;50.816;12.828;2023-07-02T14:54:20;97178.94;;;27.58;41.97
30081;BME280;16902;50.816;12.828;2023-07-02T14:59:22;97193.56;;;26.61;49.68
30081;BME280;16902;50.816;12.828;2023-07-02T15:04:24;97193.88;;;26.46;46.92
30081;BME280;16902;50.816;12.828;2023-07-02T15:09:26;97186.41;;;29.03;41.75
30081;BME280;16902;50.816;12.828;2023-07-02T15:14:27;97190.94;;;30.92;35.58
30081;BME280;16902;50.816;12.828;2023-07-02T15:19:29;97193.38;;;32.47;34.99
30081;BME280;16902;50.816;12.828;2023-07-02T15:24:31;97191.19;;;29.67;36.83
30081;BME280;16902;50.816;12.828;2023-07-02T15:29:35;97191.81;;;26.10;48.94
30081;BME280;16902;50.816;12.828;2023-07-02T15:34:37;97194.09;;;24.47;63.08
30081;BME280;16902;50.816;12.828;2023-07-02T15:39:39;97189.13;;;24.06;67.51
30081;BME280;16902;50.816;12.828;2023-07-02T15:44:40;97186.28;;;26.20;49.86
30081;BME280;16902;50.816;12.828;2023-07-02T15:49:42;97187.81;;;24.32;64.25
30081;BME280;16902;50.816;12.828;2023-07-02T15:54:44;97192.03;;;22.81;79.48
30081;BME280;16902;50.816;12.828;2023-07-02T15:59:45;97204.69;;;22.30;100.00
30081;BME280;16902;50.816;12.828;2023-07-02T16:04:47;97198.34;;;22.16;100.00
30081;BME280;16902;50.816;12.828;2023-07-02T16:09:49;97197.44;;;22.51;100.00
30081;BME280;16902;50.816;12.828;2023-07-02T16:14:51;97200.13;;;22.41;100.00
30081;BME280;16902;50.816;12.828;2023-07-02T16:19:53;97195.56;;;23.71;100.00
30081;BME280;16902;50.816;12.828;2023-07-02T16:24:55;97203.25;;;24.30;91.55
30081;BME280;16902;50.816;12.828;2023-07-02T16:29:57;97195.47;;;24.10;90.71
30081;BME280;16902;50.816;12.828;2023-07-02T16:34:58;97198.13;;;24.10;95.81
30081;BME280;16902;50.816;12.828;2023-07-02T16:40:02;97191.81;;;24.30;100.00
30081;BME280;16902;50.816;12.828;2023-07-02T16:45:05;97194.97;;;24.08;97.41
30081;BME280;16902;50.816;12.828;2023-07-02T16:50:07;97196.50;;;23.46;100.00
30081;BME280;16902;50.816;12.828;2023-07-02T16:55:09;97202.91;;;22.90;100.00
30081;BME280;16902;50.816;12.828;2023-07-02T17:00:12;97202.25;;;22.44;100.00
30081;BME280;16902;50.816;12.828;2023-07-02T17:05:14;97211.84;;;22.35;100.00
30081;BME280;16902;50.816;12.828;2023-07-02T17:10:17;97217.91;;;22.04;100.00
30081;BME280;16902;50.816;12.828;2023-07-02T17:15:19;97216.06;;;21.59;100.00
30081;BME280;16902;50.816;12.828;2023-07-02T17:20:21;97213.09;;;21.30;100.00
30081;BME280;16902;50.816;12.828;2023-07-02T17:25:23;97217.53;;;21.09;100.00
30081;BME280;16902;50.816;12.828;2023-07-02T17:30:27;97212.25;;;21.09;100.00
30081;BME280;16902;50.816;12.828;2023-07-02T17:35:28;97207.75;;;21.10;100.00
30081;BME280;16902;50.816;12.828;2023-07-02T17:40:30;97207.88;;;20.72;100.00
30081;BME280;16902;50.816;12.828;2023-07-02T17:45:33;97212.81;;;20.53;100.00
30081;BME280;16902;50.816;12.828;2023-07-02T17:50:35;97213.22;;;20.40;100.00
30081;BME280;16902;50.816;12.828;2023-07-02T17:55:37;97222.41;;;20.70;100.00
30081;BME280;16902;50.816;12.828;2023-07-02T18:00:39;97221.34;;;20.71;100.00
30081;BME280;16902;50.816;12.828;2023-07-02T18:05:40;97212.50;;;20.50;100.00
30081;BME280;16902;50.816;12.828;2023-07-02T18:10:46;97222.34;;;20.17;100.00
30081;BME280;16902;50.816;12.828;2023-07-02T18:15:47;97225.31;;;19.89;100.00
30081;BME280;16902;50.816;12.828;2023-07-02T18:20:55;97216.28;;;19.58;100.00
30081;BME280;16902;50.816;12.828;2023-07-02T18:25:57;97219.63;;;19.21;100.00
30081;BME280;16902;50.816;12.828;2023-07-02T18:31:02;97225.97;;;18.98;100.00
30081;BME280;16902;50.816;12.828;2023-07-02T18:36:09;97227.69;;;18.87;100.00
30081;BME280;16902;50.816;12.828;2023-07-02T18:41:11;97223.91;;;18.61;100.00
30081;BME280;16902;50.816;12.828;2023-07-02T18:46:13;97217.53;;;18.18;100.00
30081;BME280;16902;50.816;12.828;2023-07-02T18:51:15;97229.16;;;17.89;100.00
30081;BME280;16902;50.816;12.828;2023-07-02T18:56:17;97228.22;;;17.78;100.00
30081;BME280;16902;50.816;12.828;2023-07-02T19:01:18;97231.88;;;17.77;100.00
30081;BME280;16902;50.816;12.828;2023-07-02T19:06:20;97234.06;;;17.80;100.00
30081;BME280;16902;50.816;12.828;2023-07-02T19:11:22;97236.81;;;17.73;100.00
30081;BME280;16902;50.816;12.828;2023-07-02T19:16:24;97229.97;;;17.44;100.00
30081;BME280;16902;50.816;12.828;2023-07-02T19:21:27;97234.50;;;17.32;100.00
30081;BME280;16902;50.816;12.828;2023-07-02T19:26:28;97235.16;;;17.39;100.00
30081;BME280;16902;50.816;12.828;2023-07-02T19:31:30;97245.38;;;17.52;100.00
30081;BME280;16902;50.816;12.828;2023-07-02T19:36:32;97251.28;;;17.59;100.00
30081;BME280;16902;50.816;12.828;2023-07-02T19:41:34;97255.91;;;17.52;100.00
30081;BME280;16902;50.816;12.828;2023-07-02T19:46:35;97255.78;;;17.30;100.00
30081;BME280;16902;50.816;12.828;2023-07-02T19:51:37;97258.50;;;17.07;100.00
30081;BME280;16902;50.816;12.828;2023-07-02T19:56:41;97266.53;;;16.77;100.00
30081;BME280;16902;50.816;12.828;2023-07-02T20:01:43;97262.91;;;16.54;100.00
30081;BME280;16902;50.816;12.828;2023-07-02T20:06:45;97277.06;;;16.41;100.00
30081;BME280;16902;50.816;12.828;2023-07-02T20:11:50;97280.13;;;16.27;100.00
30081;BME280;16902;50.816;12.828;2023-07-02T20:16:52;97286.88;;;16.11;100.00
30081;BME280;16902;50.816;12.828;2023-07-02T20:21:54;97288.09;;;15.97;100.00
30081;BME280;16902;50.816;12.828;2023-07-02T20:26:57;97295.00;;;15.79;100.00
30081;BME280;16902;50.816;12.828;2023-07-02T20:31:59;97294.03;;;15.62;100.00
30081;BME280;16902;50.816;12.828;2023-07-02T20:37:01;97289.38;;;15.64;100.00
30081;BME280;16902;50.816;12.828;2023-07-02T20:42:06;97298.53;;;15.73;100.00
30081;BME280;16902;50.816;12.828;2023-07-02T20:47:08;97305.44;;;15.86;100.00
30081;BME280;16902;50.816;12.828;2023-07-02T20:52:12;97300.88;;;15.93;100.00
30081;BME280;16902;50.816;12.828;2023-07-02T20:57:14;97310.47;;;15.99;100.00
30081;BME280;16902;50.816;12.828;2023-07-02T21:02:16;97311.75;;;16.08;100.00
30081;BME280;16902;50.816;12.828;2023-07-02T21:07:20;97319.06;;;16.06;100.00
30081;BME280;16902;50.816;12.828;2023-07-02T21:12:22;97326.47;;;16.09;100.00
30081;BME280;16902;50.816;12.828;2023-07-02T21:17:24;97328.84;;;15.99;100.00
30081;BME280;16902;50.816;12.828;2023-07-02T21:22:26;97339.34;;;15.99;100.00
30081;BME280;16902;50.816;12.828;2023-07-02T21:27:29;97338.41;;;15.93;100.00
30081;BME280;16902;50.816;12.828;2023-07-02T21:32:31;97340.28;;;15.75;100.00
30081;BME280;16902;50.816;12.828;2023-07-02T21:37:33;97342.50;;;15.59;100.00
30081;BME280;16902;50.816;12.828;2023-07-02T21:42:35;97352.06;;;15.54;100.00
30081;BME280;16902;50.816;12.828;2023-07-02T21:47:37;97350.47;;;15.53;100.00
30081;BME280;16902;50.816;12.828;2023-07-02T21:52:39;97355.69;;;15.53;100.00
30081;BME280;16902;50.816;12.828;2023-07-02T21:57:41;97356.13;;;15.50;100.00
30081;BME280;16902;50.816;12.828;2023-07-02T22:02:46;97359.03;;;15.41;100.00
30081;BME280;16902;50.816;12.828;2023-07-02T22:07:48;97363.22;;;15.31;100.00
30081;BME280;16902;50.816;12.828;2023-07-02T22:12:50;97364.84;;;15.13;100.00
30081;BME280;16902;50.816;12.828;2023-07-02T22:17:52;97361.91;;;14.85;100.00
30081;BME280;16902;50.816;12.828;2023-07-02T22:22:55;97364.88;;;14.63;100.00
30081;BME280;16902;50.816;12.828;2023-07-02T22:27:57;97360.81;;;14.43;100.00
30081;BME280;16902;50.816;12.828;2023-07-02T22:32:59;97351.03;;;14.31;100.00
30081;BME280;16902;50.816;12.828;2023-07-02T22:38:01;97355.09;;;14.27;100.00
30081;BME280;16902;50.816;12.828;2023-07-02T22:43:03;97357.56;;;14.15;100.00
30081;BME280;16902;50.816;12.828;2023-07-02T22:48:05;97353.25;;;14.03;100.00
30081;BME280;16902;50.816;12.828;2023-07-02T22:53:07;97346.94;;;13.79;100.00
30081;BME280;16902;50.816;12.828;2023-07-02T22:58:09;97340.59;;;13.61;100.00
30081;BME280;16902;50.816;12.828;2023-07-02T23:03:11;97323.13;;;13.49;100.00
30081;BME280;16902;50.816;12.828;2023-07-02T23:08:14;97336.03;;;13.44;100.00
30081;BME280;16902;50.816;12.828;2023-07-02T23:13:16;97329.03;;;13.44;100.00
30081;BME280;16902;50.816;12.828;2023-07-02T23:18:21;97327.03;;;13.40;100.00
30081;BME280;16902;50.816;12.828;2023-07-02T23:23:23;97314.59;;;13.28;100.00
30081;BME280;16902;50.816;12.828;2023-07-02T23:28:25;97315.97;;;13.37;100.00
30081;BME280;16902;50.816;12.828;2023-07-02T23:33:27;97306.88;;;13.47;100.00
30081;BME280;16902;50.816;12.828;2023-07-02T23:38:29;97298.00;;;13.48;100.00
30081;BME280;16902;50.816;12.828;2023-07-02T23:43:31;97298.84;;;13.42;100.00
30081;BME280;16902;50.816;12.828;2023-07-02T23:48:33;97297.63;;;13.44;100.00
30081;BME280;16902;50.816;12.828;2023-07-02T23:53:35;97292.38;;;13.51;100.00
30081;BME280;16902;50.816;12.828;2023-07-02T23:58:38;97286.69;;;13.60;100.00
